createdAt,value
2023-03-08T00:01:36.944Z,3.92
2023-03-08T00:06:38.385Z,4.18
2023-03-08T00:11:40.994Z,2.42
2023-03-08T00:16:42.505Z,3.42
2023-03-08T00:21:44.013Z,6.15
2023-03-08T00:26:45.772Z,5.72
2023-03-08T00:31:47.271Z,3.83
2023-03-08T00:36:48.838Z,7.65
2023-03-08T00:41:52.360Z,3.13
2023-03-08T00:46:54.032Z,4.55
2023-03-08T00:51:55.521Z,4.53
2023-03-08T00:56:57.012Z,4.15
2023-03-08T01:01:58.492Z,3.45
2023-03-08T01:07:00.948Z,4.78
2023-03-08T01:12:02.427Z,4.20
2023-03-08T01:17:04.397Z,5.38
2023-03-08T01:22:05.863Z,3.80
2023-03-08T01:27:07.710Z,4.45
2023-03-08T01:32:09.963Z,3.45
2023-03-08T01:37:11.490Z,3.38
2023-03-08T01:42:13.097Z,2.72
2023-03-08T01:47:28.682Z,5.88
2023-03-08T01:52:55.181Z,3.75
2023-03-08T01:57:57.597Z,4.68
2023-03-08T02:03:02.487Z,8.18
2023-03-08T02:08:04.667Z,4.32
2023-03-08T02:13:11.324Z,3.65
2023-03-08T02:18:16.111Z,3.75
2023-03-08T02:23:24.815Z,4.93
2023-03-08T02:28:27.421Z,4.07
2023-03-08T02:33:32.370Z,3.72
2023-03-08T02:38:34.690Z,4.15
2023-03-08T02:43:36.231Z,6.00
2023-03-08T02:48:37.655Z,4.43
2023-03-08T02:53:39.196Z,3.22
2023-03-08T02:58:40.726Z,3.20
2023-03-08T03:03:42.982Z,7.40
2023-03-08T03:08:44.909Z,3.55
2023-03-08T03:13:46.939Z,4.97
2023-03-08T03:18:50.305Z,5.63
2023-03-08T03:23:51.880Z,3.80
2023-03-08T03:28:58.842Z,4.25
2023-03-08T03:34:04.222Z,4.60
2023-03-08T03:39:06.559Z,5.68
2023-03-08T03:44:10.491Z,4.43
2023-03-08T03:49:13.130Z,14.98
2023-03-08T03:54:17.455Z,8.00
2023-03-08T03:59:20.249Z,6.22
2023-03-08T04:04:22.258Z,6.68
2023-03-08T04:09:24.623Z,12.00
2023-03-08T04:14:42.546Z,5.50
2023-03-08T04:19:49.118Z,5.82
2023-03-08T04:24:51.071Z,6.57
2023-03-08T04:29:58.782Z,4.72
2023-03-08T04:35:01.010Z,4.60
2023-03-08T04:40:09.162Z,4.30
2023-03-08T04:45:16.100Z,5.80
2023-03-08T04:50:17.617Z,6.13
2023-03-08T04:55:19.712Z,8.45
2023-03-08T05:00:21.915Z,8.43
2023-03-08T05:05:23.491Z,10.85
2023-03-08T05:10:27.361Z,8.80
2023-03-08T05:15:28.878Z,8.70
2023-03-08T05:20:30.506Z,10.25
2023-03-08T05:25:33.518Z,10.23
2023-03-08T05:30:36.608Z,7.47
2023-03-08T05:35:38.557Z,8.20
2023-03-08T05:40:41.629Z,9.98
2023-03-08T05:45:43.808Z,8.60
2023-03-08T05:50:45.630Z,7.30
2023-03-08T05:55:47.369Z,11.20
2023-03-08T06:00:48.991Z,9.35
2023-03-08T06:05:50.509Z,7.32
2023-03-08T06:10:52.314Z,6.20
2023-03-08T06:15:55.719Z,5.93
2023-03-08T06:21:05.100Z,5.57
2023-03-08T06:26:09.562Z,5.20
2023-03-08T06:31:15.451Z,11.68
2023-03-08T06:36:19.567Z,7.13
2023-03-08T06:41:21.771Z,7.65
2023-03-08T06:46:28.203Z,8.15
2023-03-08T06:51:29.753Z,10.02
2023-03-08T06:56:31.355Z,11.77
2023-03-08T07:01:32.992Z,10.02
2023-03-08T07:06:34.802Z,8.95
2023-03-08T07:11:36.328Z,10.27
2023-03-08T07:16:37.788Z,10.68
2023-03-08T07:21:39.265Z,7.50
2023-03-08T07:26:40.713Z,6.90
2023-03-08T07:31:42.231Z,6.68
2023-03-08T07:36:43.680Z,8.52
2023-03-08T07:41:47.425Z,9.82
2023-03-08T07:46:49.077Z,7.95
2023-03-08T07:51:53.233Z,10.95
2023-03-08T07:56:55.804Z,13.80
2023-03-08T08:01:57.533Z,21.55
2023-03-08T08:07:00.098Z,13.25
2023-03-08T08:12:01.680Z,10.85
2023-03-08T08:17:03.471Z,6.43
2023-03-08T08:22:05.331Z,24.55
2023-03-08T08:27:06.881Z,15.93
2023-03-08T08:32:08.407Z,7.80
2023-03-08T08:37:09.907Z,9.82
2023-03-08T08:42:11.351Z,7.35
2023-03-08T08:47:12.927Z,8.05
2023-03-08T08:52:14.434Z,7.25
2023-03-08T08:57:16.005Z,9.43
2023-03-08T09:02:17.442Z,8.75
2023-03-08T09:07:18.896Z,6.70
2023-03-08T09:12:21.171Z,10.82
2023-03-08T09:17:22.699Z,7.15
2023-03-08T09:22:24.224Z,8.52
2023-03-08T09:27:25.955Z,11.20
2023-03-08T09:32:27.607Z,7.97
2023-03-08T09:37:29.037Z,7.68
2023-03-08T09:42:33.400Z,8.45
2023-03-08T09:48:04.827Z,8.68
2023-03-08T09:53:12.640Z,7.57
2023-03-08T09:58:28.513Z,5.72
2023-03-08T10:03:44.710Z,8.15
2023-03-08T10:08:57.059Z,10.48
2023-03-08T10:14:09.370Z,10.73
2023-03-08T10:19:22.590Z,6.88
2023-03-08T10:24:30.870Z,8.18
2023-03-08T10:29:32.338Z,7.63
2023-03-08T10:34:35.043Z,7.25
2023-03-08T10:39:38.866Z,9.77
2023-03-08T10:44:45.440Z,8.77
2023-03-08T10:49:47.463Z,9.32
2023-03-08T10:55:05.082Z,10.82
2023-03-08T11:00:37.044Z,18.98
2023-03-08T11:05:39.098Z,11.23
2023-03-08T11:10:40.550Z,12.93
2023-03-08T11:15:48.076Z,12.23
2023-03-08T11:20:57.003Z,11.57
2023-03-08T11:26:16.548Z,10.95
2023-03-08T11:31:21.038Z,11.05
2023-03-08T11:37:06.644Z,17.25
2023-03-08T11:42:26.229Z,10.88
2023-03-08T11:52:45.125Z,21.63
2023-03-08T11:58:01.480Z,12.80
2023-03-08T12:03:24.983Z,14.32
2023-03-08T12:08:45.379Z,8.70
2023-03-08T12:13:52.227Z,9.13
2023-03-08T12:18:56.611Z,12.57
2023-03-08T12:24:13.160Z,12.10
2023-03-08T12:29:39.090Z,14.20
2023-03-08T12:34:43.957Z,8.98
2023-03-08T12:39:56.096Z,7.95
2023-03-08T12:45:06.722Z,20.30
2023-03-08T12:50:11.610Z,12.77
2023-03-08T12:55:31.037Z,9.02
2023-03-08T13:00:36.347Z,6.57
2023-03-08T13:05:39.669Z,7.97
2023-03-08T13:10:50.192Z,9.73
2023-03-08T13:15:51.755Z,7.38
2023-03-08T13:21:16.285Z,7.43
2023-03-08T13:26:49.868Z,7.25
2023-03-08T13:31:52.234Z,8.05
2023-03-08T13:36:53.773Z,8.20
2023-03-08T13:42:07.027Z,9.07
2023-03-08T13:47:21.897Z,8.13
2023-03-08T13:52:29.788Z,8.57
2023-03-08T13:57:36.332Z,9.18
2023-03-08T14:02:45.729Z,7.32
2023-03-08T14:08:05.892Z,8.23
2023-03-08T14:13:18.030Z,8.40
2023-03-08T14:18:23.099Z,10.77
2023-03-08T14:23:26.547Z,10.35
2023-03-08T14:28:41.277Z,11.48
2023-03-08T14:33:43.555Z,9.82
2023-03-08T14:38:48.940Z,7.97
2023-03-08T14:43:51.186Z,9.90
2023-03-08T14:49:04.423Z,10.95
2023-03-08T14:54:35.283Z,15.20
2023-03-08T14:59:41.230Z,15.27
2023-03-08T15:04:44.205Z,7.93
2023-03-08T15:09:49.963Z,6.25
2023-03-08T15:14:52.420Z,5.03
2023-03-08T15:19:54.000Z,6.10
2023-03-08T15:24:55.463Z,3.72
2023-03-08T15:29:56.908Z,4.95
2023-03-08T15:34:58.370Z,4.97
2023-03-08T15:39:59.815Z,8.70
2023-03-08T15:45:01.371Z,6.90
2023-03-08T15:50:04.516Z,8.13
2023-03-08T15:55:06.757Z,8.73
2023-03-08T16:00:11.480Z,9.60
2023-03-08T16:05:14.674Z,10.45
2023-03-08T16:10:19.030Z,9.82
2023-03-08T16:15:21.263Z,9.60
2023-03-08T16:20:23.209Z,19.40
2023-03-08T16:25:24.804Z,10.40
2023-03-08T16:30:26.582Z,8.93
2023-03-08T16:35:28.009Z,7.75
2023-03-08T16:40:31.177Z,10.82
2023-03-08T16:45:32.684Z,11.80
2023-03-08T16:50:34.184Z,10.63
2023-03-08T16:55:36.307Z,10.93
2023-03-08T17:00:37.998Z,10.65
2023-03-08T17:05:45.347Z,9.63
2023-03-08T17:10:46.831Z,13.02
2023-03-08T17:15:48.296Z,16.20
2023-03-08T17:20:51.263Z,25.65
2023-03-08T17:25:52.796Z,17.00
2023-03-08T17:30:54.315Z,15.07
2023-03-08T17:35:59.173Z,13.13
2023-03-08T17:41:05.120Z,11.45
2023-03-08T17:46:11.147Z,14.38
2023-03-08T17:51:18.726Z,13.43
2023-03-08T17:56:24.913Z,16.17
2023-03-08T18:01:28.966Z,13.65
2023-03-08T18:06:33.951Z,17.42
2023-03-08T18:11:37.571Z,14.70
2023-03-08T18:16:39.829Z,24.00
2023-03-08T18:21:41.795Z,20.67
2023-03-08T18:26:43.366Z,19.08
2023-03-08T18:31:45.084Z,17.85
2023-03-08T18:36:46.614Z,21.88
2023-03-08T18:41:48.055Z,21.02
2023-03-08T18:46:50.064Z,22.38
2023-03-08T18:51:51.692Z,22.88
2023-03-08T18:56:54.423Z,21.95
2023-03-08T19:01:55.905Z,21.35
2023-03-08T19:06:57.391Z,26.92
2023-03-08T19:12:00.010Z,19.23
2023-03-08T19:17:02.028Z,20.83
2023-03-08T19:22:04.046Z,17.63
2023-03-08T19:27:06.147Z,21.65
2023-03-08T19:32:08.408Z,23.38
2023-03-08T19:37:13.193Z,21.27
2023-03-08T19:42:16.416Z,22.17
2023-03-08T19:47:19.948Z,21.45
2023-03-08T19:52:21.511Z,22.10
2023-03-08T19:57:22.988Z,22.73
2023-03-08T20:02:24.480Z,22.42
2023-03-08T20:07:25.978Z,23.95
2023-03-08T20:12:27.401Z,21.60
2023-03-08T20:17:31.172Z,24.63
2023-03-08T20:22:32.774Z,23.70
2023-03-08T20:27:34.274Z,22.15
2023-03-08T20:32:35.896Z,23.98
2023-03-08T20:37:37.382Z,21.60
2023-03-08T20:42:39.352Z,26.63
2023-03-08T20:47:40.955Z,23.42
2023-03-08T20:52:42.396Z,23.23
2023-03-08T20:57:44.025Z,24.35
2023-03-08T21:02:45.539Z,31.42
2023-03-08T21:07:47.036Z,33.15
2023-03-08T21:12:48.583Z,27.33
2023-03-08T21:17:50.070Z,24.42
2023-03-08T21:22:52.052Z,23.98
2023-03-08T21:27:53.519Z,27.63
2023-03-08T21:32:55.141Z,24.63
2023-03-08T21:37:56.580Z,25.92
2023-03-08T21:42:58.001Z,24.70
2023-03-08T21:47:59.865Z,25.83
2023-03-08T21:53:01.299Z,23.85
2023-03-08T21:58:02.723Z,24.55
2023-03-08T22:03:04.240Z,26.15
2023-03-08T22:08:05.781Z,25.30
2023-03-08T22:13:07.209Z,29.42
2023-03-08T22:18:08.643Z,27.92
2023-03-08T22:23:10.140Z,22.65
2023-03-08T22:28:11.632Z,25.00
2023-03-08T22:33:13.529Z,26.17
2023-03-08T22:38:15.981Z,26.58
2023-03-08T22:43:17.990Z,23.40
2023-03-08T22:48:19.503Z,28.17
2023-03-08T22:53:21.031Z,27.27
2023-03-08T22:58:23.242Z,29.05
2023-03-08T23:03:24.813Z,27.13
2023-03-08T23:08:26.249Z,29.27
2023-03-08T23:13:33.900Z,27.95
2023-03-08T23:18:36.330Z,27.77
2023-03-08T23:23:38.491Z,28.40
2023-03-08T23:28:40.291Z,21.27
2023-03-08T23:33:42.599Z,28.70
2023-03-08T23:38:44.674Z,32.42
2023-03-08T23:43:46.791Z,25.55
2023-03-08T23:48:48.788Z,26.02
2023-03-08T23:53:52.443Z,28.25
2023-03-08T23:58:58.980Z,26.60
